sensor_id;sensor_type;location;lat;lon;timestamp;P1;durP1;ratioP1;P2;durP2;ratioP2
6598;SDS011;3335;43.198;27.918;2023-02-18T00:00:03;42.53;;;20.27;;
6598;SDS011;3335;43.198;27.918;2023-02-18T00:02:32;47.80;;;21.57;;
6598;SDS011;3335;43.198;27.918;2023-02-18T00:04:59;39.93;;;20.90;;
6598;SDS011;3335;43.198;27.918;2023-02-18T00:07:26;42.90;;;20.13;;
6598;SDS011;3335;43.198;27.918;2023-02-18T00:09:52;42.07;;;20.10;;
6598;SDS011;3335;43.198;27.918;2023-02-18T00:12:19;42.97;;;21.13;;
6598;SDS011;3335;43.198;27.918;2023-02-18T00:14:48;35.73;;;19.53;;
6598;SDS011;3335;43.198;27.918;2023-02-18T00:17:15;39.03;;;20.13;;
6598;SDS011;3335;43.198;27.918;2023-02-18T00:19:42;47.63;;;21.30;;
6598;SDS011;3335;43.198;27.918;2023-02-18T00:22:08;43.70;;;21.73;;
6598;SDS011;3335;43.198;27.918;2023-02-18T00:24:35;37.30;;;20.40;;
6598;SDS011;3335;43.198;27.918;2023-02-18T00:27:03;41.43;;;19.23;;
6598;SDS011;3335;43.198;27.918;2023-02-18T00:29:30;38.67;;;19.60;;
6598;SDS011;3335;43.198;27.918;2023-02-18T00:31:59;39.27;;;20.30;;
6598;SDS011;3335;43.198;27.918;2023-02-18T00:34:26;39.90;;;18.90;;
6598;SDS011;3335;43.198;27.918;2023-02-18T00:36:52;35.90;;;20.20;;
6598;SDS011;3335;43.198;27.918;2023-02-18T00:39:19;35.63;;;19.60;;
6598;SDS011;3335;43.198;27.918;2023-02-18T00:41:46;36.87;;;19.53;;
6598;SDS011;3335;43.198;27.918;2023-02-18T00:44:13;39.23;;;19.83;;
6598;SDS011;3335;43.198;27.918;2023-02-18T00:46:40;34.63;;;18.87;;
6598;SDS011;3335;43.198;27.918;2023-02-18T00:49:09;38.47;;;19.33;;
6598;SDS011;3335;43.198;27.918;2023-02-18T00:51:35;39.87;;;20.50;;
6598;SDS011;3335;43.198;27.918;2023-02-18T00:54:02;42.90;;;19.77;;
6598;SDS011;3335;43.198;27.918;2023-02-18T00:56:29;39.10;;;19.60;;
6598;SDS011;3335;43.198;27.918;2023-02-18T00:58:56;38.80;;;19.87;;
6598;SDS011;3335;43.198;27.918;2023-02-18T01:01:23;38.43;;;19.47;;
6598;SDS011;3335;43.198;27.918;2023-02-18T01:03:52;33.27;;;18.43;;
6598;SDS011;3335;43.198;27.918;2023-02-18T01:06:20;38.03;;;19.83;;
6598;SDS011;3335;43.198;27.918;2023-02-18T01:08:47;35.27;;;19.53;;
6598;SDS011;3335;43.198;27.918;2023-02-18T01:11:14;36.73;;;19.47;;
6598;SDS011;3335;43.198;27.918;2023-02-18T01:13:41;36.50;;;20.80;;
6598;SDS011;3335;43.198;27.918;2023-02-18T01:16:09;32.07;;;19.40;;
6598;SDS011;3335;43.198;27.918;2023-02-18T01:18:37;39.20;;;20.57;;
6598;SDS011;3335;43.198;27.918;2023-02-18T01:21:04;34.97;;;19.37;;
6598;SDS011;3335;43.198;27.918;2023-02-18T01:23:34;39.50;;;21.07;;
6598;SDS011;3335;43.198;27.918;2023-02-18T01:26:01;35.47;;;19.93;;
6598;SDS011;3335;43.198;27.918;2023-02-18T01:28:28;37.07;;;20.10;;
6598;SDS011;3335;43.198;27.918;2023-02-18T01:30:55;47.87;;;19.93;;
6598;SDS011;3335;43.198;27.918;2023-02-18T01:33:22;48.37;;;19.93;;
6598;SDS011;3335;43.198;27.918;2023-02-18T01:35:51;35.00;;;19.10;;
6598;SDS011;3335;43.198;27.918;2023-02-18T01:38:18;35.17;;;19.43;;
6598;SDS011;3335;43.198;27.918;2023-02-18T01:40:47;39.97;;;20.27;;
6598;SDS011;3335;43.198;27.918;2023-02-18T01:43:16;41.73;;;20.90;;
6598;SDS011;3335;43.198;27.918;2023-02-18T01:48:34;39.07;;;22.17;;
6598;SDS011;3335;43.198;27.918;2023-02-18T01:51:04;37.00;;;19.77;;
6598;SDS011;3335;43.198;27.918;2023-02-18T01:53:36;39.00;;;21.13;;
6598;SDS011;3335;43.198;27.918;2023-02-18T01:56:11;47.77;;;23.77;;
6598;SDS011;3335;43.198;27.918;2023-02-18T01:58:44;41.20;;;22.57;;
6598;SDS011;3335;43.198;27.918;2023-02-18T02:01:11;38.10;;;22.53;;
6598;SDS011;3335;43.198;27.918;2023-02-18T02:03:38;42.33;;;22.50;;
6598;SDS011;3335;43.198;27.918;2023-02-18T02:06:08;42.13;;;22.03;;
6598;SDS011;3335;43.198;27.918;2023-02-18T02:08:39;39.90;;;22.90;;
6598;SDS011;3335;43.198;27.918;2023-02-18T02:11:10;42.30;;;22.27;;
6598;SDS011;3335;43.198;27.918;2023-02-18T02:13:51;47.23;;;22.87;;
6598;SDS011;3335;43.198;27.918;2023-02-18T02:16:37;39.17;;;21.80;;
6598;SDS011;3335;43.198;27.918;2023-02-18T02:19:18;42.33;;;22.90;;
6598;SDS011;3335;43.198;27.918;2023-02-18T02:22:08;43.63;;;21.93;;
6598;SDS011;3335;43.198;27.918;2023-02-18T02:25:08;49.53;;;24.47;;
6598;SDS011;3335;43.198;27.918;2023-02-18T02:28:00;41.97;;;22.70;;
6598;SDS011;3335;43.198;27.918;2023-02-18T02:31:02;46.67;;;23.33;;
6598;SDS011;3335;43.198;27.918;2023-02-18T02:37:00;47.10;;;24.07;;
6598;SDS011;3335;43.198;27.918;2023-02-18T02:39:33;41.13;;;23.33;;
6598;SDS011;3335;43.198;27.918;2023-02-18T02:42:07;51.33;;;24.53;;
6598;SDS011;3335;43.198;27.918;2023-02-18T02:44:43;45.83;;;26.27;;
6598;SDS011;3335;43.198;27.918;2023-02-18T02:47:17;47.80;;;23.33;;
6598;SDS011;3335;43.198;27.918;2023-02-18T02:49:54;49.93;;;25.03;;
6598;SDS011;3335;43.198;27.918;2023-02-18T02:52:26;47.87;;;26.03;;
6598;SDS011;3335;43.198;27.918;2023-02-18T02:54:57;47.43;;;25.20;;
6598;SDS011;3335;43.198;27.918;2023-02-18T02:57:40;56.10;;;26.80;;
6598;SDS011;3335;43.198;27.918;2023-02-18T03:00:10;44.50;;;25.47;;
6598;SDS011;3335;43.198;27.918;2023-02-18T03:02:42;47.20;;;25.97;;
6598;SDS011;3335;43.198;27.918;2023-02-18T03:05:32;46.17;;;24.03;;
6598;SDS011;3335;43.198;27.918;2023-02-18T03:08:19;47.37;;;24.77;;
6598;SDS011;3335;43.198;27.918;2023-02-18T03:10:57;47.10;;;25.33;;
6598;SDS011;3335;43.198;27.918;2023-02-18T03:13:36;48.90;;;25.27;;
6598;SDS011;3335;43.198;27.918;2023-02-18T03:16:15;39.33;;;23.30;;
6598;SDS011;3335;43.198;27.918;2023-02-18T03:18:50;41.33;;;24.77;;
6598;SDS011;3335;43.198;27.918;2023-02-18T03:21:26;52.13;;;23.60;;
6598;SDS011;3335;43.198;27.918;2023-02-18T03:23:57;43.43;;;25.20;;
6598;SDS011;3335;43.198;27.918;2023-02-18T03:26:28;46.97;;;24.77;;
6598;SDS011;3335;43.198;27.918;2023-02-18T03:28:57;42.57;;;23.63;;
6598;SDS011;3335;43.198;27.918;2023-02-18T03:31:28;48.03;;;22.90;;
6598;SDS011;3335;43.198;27.918;2023-02-18T03:33:58;39.10;;;20.80;;
6598;SDS011;3335;43.198;27.918;2023-02-18T03:36:30;39.30;;;22.03;;
6598;SDS011;3335;43.198;27.918;2023-02-18T03:38:59;42.93;;;21.17;;
6598;SDS011;3335;43.198;27.918;2023-02-18T03:41:30;33.97;;;20.13;;
6598;SDS011;3335;43.198;27.918;2023-02-18T03:43:58;35.53;;;20.37;;
6598;SDS011;3335;43.198;27.918;2023-02-18T03:46:26;37.03;;;20.57;;
6598;SDS011;3335;43.198;27.918;2023-02-18T03:48:54;35.30;;;19.07;;
6598;SDS011;3335;43.198;27.918;2023-02-18T03:51:21;35.90;;;20.00;;
6598;SDS011;3335;43.198;27.918;2023-02-18T03:53:50;37.40;;;20.80;;
6598;SDS011;3335;43.198;27.918;2023-02-18T03:56:16;35.73;;;21.03;;
6598;SDS011;3335;43.198;27.918;2023-02-18T03:58:45;44.23;;;20.93;;
6598;SDS011;3335;43.198;27.918;2023-02-18T04:01:12;37.50;;;20.23;;
6598;SDS011;3335;43.198;27.918;2023-02-18T04:03:39;38.80;;;20.30;;
6598;SDS011;3335;43.198;27.918;2023-02-18T04:06:06;38.93;;;20.47;;
6598;SDS011;3335;43.198;27.918;2023-02-18T04:08:33;39.10;;;21.27;;
6598;SDS011;3335;43.198;27.918;2023-02-18T04:11:02;41.17;;;21.83;;
6598;SDS011;3335;43.198;27.918;2023-02-18T04:13:30;42.07;;;20.70;;
6598;SDS011;3335;43.198;27.918;2023-02-18T04:15:57;43.37;;;22.23;;
6598;SDS011;3335;43.198;27.918;2023-02-18T04:18:24;37.67;;;21.30;;
6598;SDS011;3335;43.198;27.918;2023-02-18T04:20:51;39.70;;;20.97;;
6598;SDS011;3335;43.198;27.918;2023-02-18T04:23:18;37.07;;;20.10;;
6598;SDS011;3335;43.198;27.918;2023-02-18T04:25:45;40.63;;;21.57;;
6598;SDS011;3335;43.198;27.918;2023-02-18T04:28:13;39.23;;;20.77;;
6598;SDS011;3335;43.198;27.918;2023-02-18T04:30:42;37.23;;;21.63;;
6598;SDS011;3335;43.198;27.918;2023-02-18T04:33:09;46.77;;;22.13;;
6598;SDS011;3335;43.198;27.918;2023-02-18T04:35:36;40.20;;;21.13;;
6598;SDS011;3335;43.198;27.918;2023-02-18T04:38:04;37.37;;;20.43;;
6598;SDS011;3335;43.198;27.918;2023-02-18T04:40:31;33.97;;;20.07;;
6598;SDS011;3335;43.198;27.918;2023-02-18T04:42:58;35.93;;;18.50;;
6598;SDS011;3335;43.198;27.918;2023-02-18T04:45:28;34.63;;;18.40;;
6598;SDS011;3335;43.198;27.918;2023-02-18T04:47:54;34.63;;;18.10;;
6598;SDS011;3335;43.198;27.918;2023-02-18T04:50:21;28.17;;;17.27;;
6598;SDS011;3335;43.198;27.918;2023-02-18T04:52:48;30.37;;;16.27;;
6598;SDS011;3335;43.198;27.918;2023-02-18T04:55:16;39.00;;;17.67;;
6598;SDS011;3335;43.198;27.918;2023-02-18T04:57:43;31.60;;;16.80;;
6598;SDS011;3335;43.198;27.918;2023-02-18T05:00:12;28.77;;;15.83;;
6598;SDS011;3335;43.198;27.918;2023-02-18T05:02:43;29.93;;;16.53;;
6598;SDS011;3335;43.198;27.918;2023-02-18T05:05:10;32.33;;;16.37;;
6598;SDS011;3335;43.198;27.918;2023-02-18T05:07:38;27.13;;;15.27;;
6598;SDS011;3335;43.198;27.918;2023-02-18T05:10:06;26.83;;;15.03;;
6598;SDS011;3335;43.198;27.918;2023-02-18T05:12:34;32.83;;;16.77;;
6598;SDS011;3335;43.198;27.918;2023-02-18T05:15:01;34.73;;;16.57;;
6598;SDS011;3335;43.198;27.918;2023-02-18T05:17:28;28.50;;;15.37;;
6598;SDS011;3335;43.198;27.918;2023-02-18T05:19:56;26.23;;;14.20;;
6598;SDS011;3335;43.198;27.918;2023-02-18T05:22:23;29.17;;;15.53;;
6598;SDS011;3335;43.198;27.918;2023-02-18T05:24:50;31.90;;;15.20;;
6598;SDS011;3335;43.198;27.918;2023-02-18T05:27:17;25.73;;;14.57;;
6598;SDS011;3335;43.198;27.918;2023-02-18T05:29:44;28.27;;;17.00;;
6598;SDS011;3335;43.198;27.918;2023-02-18T05:32:11;32.10;;;17.23;;
6598;SDS011;3335;43.198;27.918;2023-02-18T05:34:38;31.13;;;17.90;;
6598;SDS011;3335;43.198;27.918;2023-02-18T05:37:06;35.87;;;17.40;;
6598;SDS011;3335;43.198;27.918;2023-02-18T05:39:33;35.47;;;19.47;;
6598;SDS011;3335;43.198;27.918;2023-02-18T05:42:00;32.53;;;18.40;;
6598;SDS011;3335;43.198;27.918;2023-02-18T05:44:27;35.20;;;18.20;;
6598;SDS011;3335;43.198;27.918;2023-02-18T05:46:57;31.40;;;17.17;;
6598;SDS011;3335;43.198;27.918;2023-02-18T05:49:26;29.50;;;17.00;;
6598;SDS011;3335;43.198;27.918;2023-02-18T05:51:53;30.20;;;16.97;;
6598;SDS011;3335;43.198;27.918;2023-02-18T05:54:22;30.77;;;16.33;;
6598;SDS011;3335;43.198;27.918;2023-02-18T05:56:49;42.33;;;22.10;;
6598;SDS011;3335;43.198;27.918;2023-02-18T05:59:16;64.87;;;28.97;;
6598;SDS011;3335;43.198;27.918;2023-02-18T06:01:44;52.57;;;25.60;;
6598;SDS011;3335;43.198;27.918;2023-02-18T06:04:12;53.80;;;24.83;;
6598;SDS011;3335;43.198;27.918;2023-02-18T06:06:40;45.23;;;22.03;;
6598;SDS011;3335;43.198;27.918;2023-02-18T06:09:07;31.10;;;18.47;;
6598;SDS011;3335;43.198;27.918;2023-02-18T06:11:36;32.40;;;17.07;;
6598;SDS011;3335;43.198;27.918;2023-02-18T06:14:03;28.40;;;15.43;;
6598;SDS011;3335;43.198;27.918;2023-02-18T06:16:30;29.33;;;15.20;;
6598;SDS011;3335;43.198;27.918;2023-02-18T06:18:57;21.83;;;13.40;;
6598;SDS011;3335;43.198;27.918;2023-02-18T06:21:24;27.57;;;13.90;;
6598;SDS011;3335;43.198;27.918;2023-02-18T06:23:51;27.20;;;12.93;;
6598;SDS011;3335;43.198;27.918;2023-02-18T06:26:18;23.93;;;14.13;;
6598;SDS011;3335;43.198;27.918;2023-02-18T06:28:46;28.17;;;14.33;;
6598;SDS011;3335;43.198;27.918;2023-02-18T06:31:13;28.23;;;15.37;;
6598;SDS011;3335;43.198;27.918;2023-02-18T06:33:40;25.80;;;14.90;;
6598;SDS011;3335;43.198;27.918;2023-02-18T06:36:08;27.27;;;14.20;;
6598;SDS011;3335;43.198;27.918;2023-02-18T06:38:36;25.67;;;14.80;;
6598;SDS011;3335;43.198;27.918;2023-02-18T06:41:04;29.67;;;14.43;;
6598;SDS011;3335;43.198;27.918;2023-02-18T06:43:32;25.73;;;13.73;;
6598;SDS011;3335;43.198;27.918;2023-02-18T06:46:01;29.80;;;14.03;;
6598;SDS011;3335;43.198;27.918;2023-02-18T06:48:28;32.77;;;15.07;;
6598;SDS011;3335;43.198;27.918;2023-02-18T06:50:55;35.63;;;16.03;;
6598;SDS011;3335;43.198;27.918;2023-02-18T06:53:22;30.23;;;17.20;;
6598;SDS011;3335;43.198;27.918;2023-02-18T06:55:49;33.53;;;16.20;;
6598;SDS011;3335;43.198;27.918;2023-02-18T06:58:16;27.83;;;16.13;;
6598;SDS011;3335;43.198;27.918;2023-02-18T07:00:43;32.67;;;16.37;;
6598;SDS011;3335;43.198;27.918;2023-02-18T07:03:12;37.70;;;17.30;;
6598;SDS011;3335;43.198;27.918;2023-02-18T07:05:39;34.33;;;16.40;;
6598;SDS011;3335;43.198;27.918;2023-02-18T07:08:07;41.97;;;18.00;;
6598;SDS011;3335;43.198;27.918;2023-02-18T07:10:34;35.20;;;19.13;;
6598;SDS011;3335;43.198;27.918;2023-02-18T07:13:01;35.90;;;18.60;;
6598;SDS011;3335;43.198;27.918;2023-02-18T07:15:28;36.90;;;18.67;;
6598;SDS011;3335;43.198;27.918;2023-02-18T07:17:54;40.03;;;18.67;;
6598;SDS011;3335;43.198;27.918;2023-02-18T07:20:23;38.47;;;18.60;;
6598;SDS011;3335;43.198;27.918;2023-02-18T07:22:50;43.40;;;19.27;;
6598;SDS011;3335;43.198;27.918;2023-02-18T07:25:17;40.50;;;19.83;;
6598;SDS011;3335;43.198;27.918;2023-02-18T07:27:45;43.97;;;21.30;;
6598;SDS011;3335;43.198;27.918;2023-02-18T07:30:12;48.70;;;22.70;;
6598;SDS011;3335;43.198;27.918;2023-02-18T07:32:40;44.37;;;22.40;;
6598;SDS011;3335;43.198;27.918;2023-02-18T07:35:07;51.33;;;20.37;;
6598;SDS011;3335;43.198;27.918;2023-02-18T07:37:35;43.93;;;20.37;;
6598;SDS011;3335;43.198;27.918;2023-02-18T07:40:02;45.03;;;20.70;;
6598;SDS011;3335;43.198;27.918;2023-02-18T07:42:29;50.00;;;19.87;;
6598;SDS011;3335;43.198;27.918;2023-02-18T07:44:57;38.60;;;17.77;;
6598;SDS011;3335;43.198;27.918;2023-02-18T07:47:24;51.07;;;18.43;;
6598;SDS011;3335;43.198;27.918;2023-02-18T07:49:50;49.70;;;17.33;;
6598;SDS011;3335;43.198;27.918;2023-02-18T07:52:17;49.50;;;18.60;;
6598;SDS011;3335;43.198;27.918;2023-02-18T07:54:46;36.23;;;16.63;;
6598;SDS011;3335;43.198;27.918;2023-02-18T07:57:13;40.00;;;18.23;;
6598;SDS011;3335;43.198;27.918;2023-02-18T07:59:40;36.57;;;17.53;;
6598;SDS011;3335;43.198;27.918;2023-02-18T08:02:07;40.73;;;17.53;;
6598;SDS011;3335;43.198;27.918;2023-02-18T08:04:40;37.30;;;16.60;;
6598;SDS011;3335;43.198;27.918;2023-02-18T08:07:10;35.70;;;17.73;;
6598;SDS011;3335;43.198;27.918;2023-02-18T08:09:38;39.57;;;18.23;;
6598;SDS011;3335;43.198;27.918;2023-02-18T08:12:07;39.77;;;18.07;;
6598;SDS011;3335;43.198;27.918;2023-02-18T08:14:34;36.37;;;16.77;;
6598;SDS011;3335;43.198;27.918;2023-02-18T08:17:01;36.37;;;17.10;;
6598;SDS011;3335;43.198;27.918;2023-02-18T08:19:28;34.20;;;16.90;;
6598;SDS011;3335;43.198;27.918;2023-02-18T08:21:55;32.90;;;17.33;;
6598;SDS011;3335;43.198;27.918;2023-02-18T08:24:22;31.23;;;18.33;;
6598;SDS011;3335;43.198;27.918;2023-02-18T08:26:48;34.97;;;16.70;;
6598;SDS011;3335;43.198;27.918;2023-02-18T08:29:17;35.50;;;17.10;;
6598;SDS011;3335;43.198;27.918;2023-02-18T08:31:44;27.87;;;17.00;;
6598;SDS011;3335;43.198;27.918;2023-02-18T08:34:11;37.03;;;18.30;;
6598;SDS011;3335;43.198;27.918;2023-02-18T08:36:37;34.70;;;17.80;;
6598;SDS011;3335;43.198;27.918;2023-02-18T08:39:04;38.53;;;18.27;;
6598;SDS011;3335;43.198;27.918;2023-02-18T08:41:31;33.47;;;17.97;;
6598;SDS011;3335;43.198;27.918;2023-02-18T08:43:58;41.60;;;18.40;;
6598;SDS011;3335;43.198;27.918;2023-02-18T08:46:26;39.90;;;18.53;;
6598;SDS011;3335;43.198;27.918;2023-02-18T08:48:53;28.67;;;16.30;;
6598;SDS011;3335;43.198;27.918;2023-02-18T08:51:21;31.30;;;16.50;;
6598;SDS011;3335;43.198;27.918;2023-02-18T08:53:48;32.40;;;17.13;;
6598;SDS011;3335;43.198;27.918;2023-02-18T08:56:15;39.40;;;17.67;;
6598;SDS011;3335;43.198;27.918;2023-02-18T08:58:42;31.70;;;17.53;;
6598;SDS011;3335;43.198;27.918;2023-02-18T09:01:10;39.63;;;18.50;;
6598;SDS011;3335;43.198;27.918;2023-02-18T09:03:40;33.20;;;19.17;;
6598;SDS011;3335;43.198;27.918;2023-02-18T09:06:07;39.63;;;20.63;;
6598;SDS011;3335;43.198;27.918;2023-02-18T09:08:34;41.37;;;20.90;;
6598;SDS011;3335;43.198;27.918;2023-02-18T09:11:02;45.63;;;21.13;;
6598;SDS011;3335;43.198;27.918;2023-02-18T09:13:29;34.87;;;18.87;;
6598;SDS011;3335;43.198;27.918;2023-02-18T09:15:57;33.17;;;17.03;;
6598;SDS011;3335;43.198;27.918;2023-02-18T09:18:26;25.83;;;13.67;;
6598;SDS011;3335;43.198;27.918;2023-02-18T09:20:56;25.73;;;12.93;;
6598;SDS011;3335;43.198;27.918;2023-02-18T09:23:24;23.53;;;12.80;;
6598;SDS011;3335;43.198;27.918;2023-02-18T09:25:52;18.80;;;11.60;;
6598;SDS011;3335;43.198;27.918;2023-02-18T09:28:19;19.77;;;11.20;;
6598;SDS011;3335;43.198;27.918;2023-02-18T09:30:46;24.77;;;10.87;;
6598;SDS011;3335;43.198;27.918;2023-02-18T09:33:13;20.33;;;10.37;;
6598;SDS011;3335;43.198;27.918;2023-02-18T09:35:41;16.03;;;9.20;;
6598;SDS011;3335;43.198;27.918;2023-02-18T09:38:11;24.77;;;10.47;;
6598;SDS011;3335;43.198;27.918;2023-02-18T09:40:42;22.53;;;10.03;;
6598;SDS011;3335;43.198;27.918;2023-02-18T09:43:12;18.77;;;9.10;;
6598;SDS011;3335;43.198;27.918;2023-02-18T09:45:48;23.70;;;8.87;;
6598;SDS011;3335;43.198;27.918;2023-02-18T09:48:16;22.37;;;8.93;;
6598;SDS011;3335;43.198;27.918;2023-02-18T09:50:44;23.63;;;6.37;;
6598;SDS011;3335;43.198;27.918;2023-02-18T09:53:19;26.03;;;6.67;;
6598;SDS011;3335;43.198;27.918;2023-02-18T09:55:47;18.57;;;6.87;;
6598;SDS011;3335;43.198;27.918;2023-02-18T09:58:18;14.77;;;5.80;;
6598;SDS011;3335;43.198;27.918;2023-02-18T10:00:47;17.47;;;6.40;;
6598;SDS011;3335;43.198;27.918;2023-02-18T10:03:16;15.83;;;5.33;;
6598;SDS011;3335;43.198;27.918;2023-02-18T10:05:47;24.70;;;6.13;;
6598;SDS011;3335;43.198;27.918;2023-02-18T10:08:23;13.60;;;5.70;;
6598;SDS011;3335;43.198;27.918;2023-02-18T10:10:53;16.23;;;5.00;;
6598;SDS011;3335;43.198;27.918;2023-02-18T10:13:21;11.80;;;5.43;;
6598;SDS011;3335;43.198;27.918;2023-02-18T10:15:50;10.60;;;5.67;;
6598;SDS011;3335;43.198;27.918;2023-02-18T10:18:21;11.33;;;5.50;;
6598;SDS011;3335;43.198;27.918;2023-02-18T10:20:51;13.40;;;5.57;;
6598;SDS011;3335;43.198;27.918;2023-02-18T10:23:24;21.53;;;5.37;;
6598;SDS011;3335;43.198;27.918;2023-02-18T10:25:53;13.93;;;5.60;;
6598;SDS011;3335;43.198;27.918;2023-02-18T10:28:22;12.43;;;4.97;;
6598;SDS011;3335;43.198;27.918;2023-02-18T10:30:53;9.03;;;5.87;;
6598;SDS011;3335;43.198;27.918;2023-02-18T10:33:31;11.00;;;6.27;;
6598;SDS011;3335;43.198;27.918;2023-02-18T10:36:02;13.50;;;5.17;;
6598;SDS011;3335;43.198;27.918;2023-02-18T10:38:44;11.90;;;5.10;;
6598;SDS011;3335;43.198;27.918;2023-02-18T10:41:25;20.13;;;5.30;;
6598;SDS011;3335;43.198;27.918;2023-02-18T10:43:59;14.77;;;5.30;;
6598;SDS011;3335;43.198;27.918;2023-02-18T10:46:34;14.33;;;4.63;;
6598;SDS011;3335;43.198;27.918;2023-02-18T10:49:15;9.60;;;4.83;;
6598;SDS011;3335;43.198;27.918;2023-02-18T10:52:00;14.23;;;4.53;;
6598;SDS011;3335;43.198;27.918;2023-02-18T10:54:47;12.80;;;4.77;;
6598;SDS011;3335;43.198;27.918;2023-02-18T10:57:16;14.30;;;4.60;;
6598;SDS011;3335;43.198;27.918;2023-02-18T10:59:53;29.13;;;5.23;;
6598;SDS011;3335;43.198;27.918;2023-02-18T11:02:22;11.83;;;4.57;;
6598;SDS011;3335;43.198;27.918;2023-02-18T11:04:51;13.40;;;5.13;;
6598;SDS011;3335;43.198;27.918;2023-02-18T11:07:18;12.17;;;5.00;;
6598;SDS011;3335;43.198;27.918;2023-02-18T11:09:50;14.73;;;5.80;;
6598;SDS011;3335;43.198;27.918;2023-02-18T11:12:21;8.40;;;4.77;;
6598;SDS011;3335;43.198;27.918;2023-02-18T11:14:50;13.53;;;4.77;;
6598;SDS011;3335;43.198;27.918;2023-02-18T11:17:33;10.03;;;4.23;;
6598;SDS011;3335;43.198;27.918;2023-02-18T11:20:04;9.70;;;4.93;;
6598;SDS011;3335;43.198;27.918;2023-02-18T11:22:47;14.27;;;6.07;;
6598;SDS011;3335;43.198;27.918;2023-02-18T11:25:20;14.33;;;5.10;;
6598;SDS011;3335;43.198;27.918;2023-02-18T11:27:48;17.90;;;5.10;;
6598;SDS011;3335;43.198;27.918;2023-02-18T11:30:18;34.73;;;5.60;;
6598;SDS011;3335;43.198;27.918;2023-02-18T11:32:49;36.97;;;5.30;;
6598;SDS011;3335;43.198;27.918;2023-02-18T11:35:19;30.90;;;4.77;;
6598;SDS011;3335;43.198;27.918;2023-02-18T11:37:49;60.20;;;6.27;;
6598;SDS011;3335;43.198;27.918;2023-02-18T11:40:22;26.13;;;5.70;;
6598;SDS011;3335;43.198;27.918;2023-02-18T11:42:50;9.67;;;4.60;;
6598;SDS011;3335;43.198;27.918;2023-02-18T11:45:25;18.77;;;5.17;;
6598;SDS011;3335;43.198;27.918;2023-02-18T11:47:57;18.67;;;4.63;;
6598;SDS011;3335;43.198;27.918;2023-02-18T11:50:28;23.10;;;5.77;;
6598;SDS011;3335;43.198;27.918;2023-02-18T11:52:57;12.70;;;4.47;;
6598;SDS011;3335;43.198;27.918;2023-02-18T11:55:26;31.53;;;14.17;;
6598;SDS011;3335;43.198;27.918;2023-02-18T11:57:56;73.13;;;36.10;;
6598;SDS011;3335;43.198;27.918;2023-02-18T12:00:30;60.07;;;28.63;;
6598;SDS011;3335;43.198;27.918;2023-02-18T12:03:06;117.53;;;66.87;;
6598;SDS011;3335;43.198;27.918;2023-02-18T12:05:40;149.63;;;84.37;;
6598;SDS011;3335;43.198;27.918;2023-02-18T12:08:11;93.17;;;50.00;;
6598;SDS011;3335;43.198;27.918;2023-02-18T12:10:44;123.10;;;66.83;;
6598;SDS011;3335;43.198;27.918;2023-02-18T12:13:21;91.53;;;46.17;;
6598;SDS011;3335;43.198;27.918;2023-02-18T12:15:56;49.33;;;24.80;;
6598;SDS011;3335;43.198;27.918;2023-02-18T12:18:43;33.00;;;14.63;;
6598;SDS011;3335;43.198;27.918;2023-02-18T12:21:28;32.43;;;13.80;;
6598;SDS011;3335;43.198;27.918;2023-02-18T12:24:01;46.43;;;14.57;;
6598;SDS011;3335;43.198;27.918;2023-02-18T12:26:43;21.63;;;8.27;;
6598;SDS011;3335;43.198;27.918;2023-02-18T12:29:26;16.37;;;7.30;;
6598;SDS011;3335;43.198;27.918;2023-02-18T12:32:11;16.97;;;5.63;;
6598;SDS011;3335;43.198;27.918;2023-02-18T12:34:49;17.80;;;5.97;;
6598;SDS011;3335;43.198;27.918;2023-02-18T12:37:42;12.43;;;4.73;;
6598;SDS011;3335;43.198;27.918;2023-02-18T12:40:28;9.33;;;4.60;;
6598;SDS011;3335;43.198;27.918;2023-02-18T12:43:08;33.47;;;5.83;;
6598;SDS011;3335;43.198;27.918;2023-02-18T12:45:48;38.37;;;5.40;;
6598;SDS011;3335;43.198;27.918;2023-02-18T12:48:33;23.50;;;5.10;;
6598;SDS011;3335;43.198;27.918;2023-02-18T12:51:22;19.97;;;4.63;;
6598;SDS011;3335;43.198;27.918;2023-02-18T12:54:06;17.07;;;4.47;;
6598;SDS011;3335;43.198;27.918;2023-02-18T12:56:58;18.87;;;4.60;;
6598;SDS011;3335;43.198;27.918;2023-02-18T12:59:50;11.07;;;4.27;;
6598;SDS011;3335;43.198;27.918;2023-02-18T13:02:43;28.50;;;4.53;;
6598;SDS011;3335;43.198;27.918;2023-02-18T13:05:32;9.57;;;4.40;;
6598;SDS011;3335;43.198;27.918;2023-02-18T13:08:11;8.33;;;4.03;;
6598;SDS011;3335;43.198;27.918;2023-02-18T13:10:50;15.37;;;4.50;;
6598;SDS011;3335;43.198;27.918;2023-02-18T13:13:23;7.20;;;3.70;;
6598;SDS011;3335;43.198;27.918;2023-02-18T13:15:54;9.53;;;4.33;;
6598;SDS011;3335;43.198;27.918;2023-02-18T13:18:25;9.13;;;4.47;;
6598;SDS011;3335;43.198;27.918;2023-02-18T13:20:56;6.33;;;3.90;;
6598;SDS011;3335;43.198;27.918;2023-02-18T13:23:27;6.77;;;4.57;;
6598;SDS011;3335;43.198;27.918;2023-02-18T13:25:56;9.27;;;4.03;;
6598;SDS011;3335;43.198;27.918;2023-02-18T13:28:27;8.30;;;4.37;;
6598;SDS011;3335;43.198;27.918;2023-02-18T13:31:03;11.20;;;4.57;;
6598;SDS011;3335;43.198;27.918;2023-02-18T13:33:46;8.00;;;3.77;;
6598;SDS011;3335;43.198;27.918;2023-02-18T13:36:25;7.90;;;3.97;;
6598;SDS011;3335;43.198;27.918;2023-02-18T13:39:02;6.27;;;3.50;;
6598;SDS011;3335;43.198;27.918;2023-02-18T13:41:36;9.60;;;3.80;;
6598;SDS011;3335;43.198;27.918;2023-02-18T13:44:07;12.43;;;3.93;;
6598;SDS011;3335;43.198;27.918;2023-02-18T13:46:57;6.00;;;3.27;;
6598;SDS011;3335;43.198;27.918;2023-02-18T13:49:25;10.23;;;4.10;;
6598;SDS011;3335;43.198;27.918;2023-02-18T13:51:57;11.77;;;4.20;;
6598;SDS011;3335;43.198;27.918;2023-02-18T13:54:26;13.13;;;3.77;;
6598;SDS011;3335;43.198;27.918;2023-02-18T13:56:57;8.93;;;3.93;;
6598;SDS011;3335;43.198;27.918;2023-02-18T13:59:29;5.90;;;3.47;;
6598;SDS011;3335;43.198;27.918;2023-02-18T14:02:27;10.77;;;3.73;;
6598;SDS011;3335;43.198;27.918;2023-02-18T14:05:13;6.70;;;3.73;;
6598;SDS011;3335;43.198;27.918;2023-02-18T14:07:46;9.70;;;4.33;;
6598;SDS011;3335;43.198;27.918;2023-02-18T14:10:30;7.47;;;3.60;;
6598;SDS011;3335;43.198;27.918;2023-02-18T14:15:52;4.87;;;3.67;;
6598;SDS011;3335;43.198;27.918;2023-02-18T14:21:37;12.80;;;4.60;;
6598;SDS011;3335;43.198;27.918;2023-02-18T14:24:06;4.23;;;3.60;;
6598;SDS011;3335;43.198;27.918;2023-02-18T14:26:36;6.73;;;4.30;;
6598;SDS011;3335;43.198;27.918;2023-02-18T14:29:10;8.82;;;4.30;;
6598;SDS011;3335;43.198;27.918;2023-02-18T14:31:42;12.63;;;4.30;;
6598;SDS011;3335;43.198;27.918;2023-02-18T14:37:23;6.73;;;3.80;;
6598;SDS011;3335;43.198;27.918;2023-02-18T14:40:13;8.90;;;3.90;;
6598;SDS011;3335;43.198;27.918;2023-02-18T14:42:50;5.77;;;4.03;;
6598;SDS011;3335;43.198;27.918;2023-02-18T14:45:28;6.80;;;3.80;;
6598;SDS011;3335;43.198;27.918;2023-02-18T14:48:15;12.93;;;4.03;;
6598;SDS011;3335;43.198;27.918;2023-02-18T14:50:53;11.23;;;3.87;;
6598;SDS011;3335;43.198;27.918;2023-02-18T14:53:25;6.07;;;4.10;;
6598;SDS011;3335;43.198;27.918;2023-02-18T14:55:54;8.50;;;3.97;;
6598;SDS011;3335;43.198;27.918;2023-02-18T14:58:27;12.43;;;4.13;;
6598;SDS011;3335;43.198;27.918;2023-02-18T15:00:57;8.17;;;3.73;;
6598;SDS011;3335;43.198;27.918;2023-02-18T15:03:30;7.77;;;3.67;;
6598;SDS011;3335;43.198;27.918;2023-02-18T15:05:57;7.33;;;3.80;;
6598;SDS011;3335;43.198;27.918;2023-02-18T15:08:25;12.50;;;4.00;;
6598;SDS011;3335;43.198;27.918;2023-02-18T15:10:55;6.83;;;3.50;;
6598;SDS011;3335;43.198;27.918;2023-02-18T15:13:25;11.80;;;4.00;;
6598;SDS011;3335;43.198;27.918;2023-02-18T15:15:56;8.87;;;3.93;;
6598;SDS011;3335;43.198;27.918;2023-02-18T15:18:27;8.87;;;4.03;;